Time;durP1;ratioP1;P1;durP2;ratioP2;P2;SDS_P1;SDS_P2;PMS_P1;PMS_P2;Temp;Humidity;BMP_temperature;BMP_pressure;BME280_temperature;BME280_humidity;BME280_pressure;Samples;Min_cycle;Max_cycle;Signal;HPM_P1;HPM_P2
2022/08/17 00:01:56;;;;;;;5.20;3.85;;;;;;;16.53;69.50;98115.47;4185731;28;20064;-71
2022/08/17 00:03:57;;;;;;;7.85;3.90;;;;;;;16.54;69.02;98128.22;4184471;28;20110;-71
2022/08/17 00:06:13;;;;;;;6.57;4.47;;;;;;;16.52;69.24;98124.28;4184873;28;20299;-71
2022/08/17 00:08:16;;;;;;;5.85;4.30;;;;;;;16.50;69.26;98130.28;4185343;28;20219;-71
2022/08/17 00:10:17;;;;;;;6.50;4.43;;;;;;;16.48;69.50;98123.56;4184839;28;20036;-71
2022/08/17 00:12:18;;;;;;;7.05;4.72;;;;;;;16.39;69.90;98112.16;4184796;28;20031;-71
2022/08/17 00:14:19;;;;;;;8.10;4.57;;;;;;;16.32;70.15;98117.88;4185134;28;20029;-71
2022/08/17 00:16:30;;;;;;;5.72;4.20;;;;;;;16.25;70.43;98118.78;4187373;28;20037;-71
2022/08/17 00:18:31;;;;;;;8.57;4.75;;;;;;;16.22;70.26;98123.22;4188665;28;20572;-72
2022/08/17 00:20:32;;;;;;;9.20;4.20;;;;;;;16.16;70.53;98113.75;4188838;28;20377;-71
2022/08/17 00:22:32;;;;;;;7.30;4.75;;;;;;;16.14;70.95;98126.53;4188752;28;20195;-72
2022/08/17 00:24:33;;;;;;;6.32;4.85;;;;;;;16.09;71.50;98129.81;4188357;28;20442;-72
2022/08/17 00:26:33;;;;;;;5.70;4.95;;;;;;;15.98;72.01;98127.19;4188009;28;20044;-72
2022/08/17 00:28:34;;;;;;;7.15;4.47;;;;;;;15.92;71.45;98129.66;4188085;28;20167;-72
2022/08/17 00:30:35;;;;;;;5.68;4.50;;;;;;;15.86;72.35;98127.78;4178078;28;20119;-71
2022/08/17 00:32:38;;;;;;;5.20;4.70;;;;;;;15.85;73.31;98137.34;4185427;28;20178;-72
2022/08/17 00:34:39;;;;;;;7.20;4.97;;;;;;;15.82;72.72;98130.63;4187195;28;20043;-72
2022/08/17 00:36:39;;;;;;;5.97;4.28;;;;;;;15.82;72.38;98136.19;4188336;28;20606;-72
2022/08/17 00:38:40;;;;;;;4.93;4.43;;;;;;;15.79;72.78;98133.44;4187790;28;20052;-71
2022/08/17 00:40:44;;;;;;;7.82;4.85;;;;;;;15.73;72.74;98127.56;4187887;28;20406;-72
2022/08/17 00:42:46;;;;;;;7.18;5.05;;;;;;;15.75;72.39;98127.94;4187930;28;20048;-71
2022/08/17 00:44:46;;;;;;;6.72;4.70;;;;;;;15.74;72.81;98120.78;4187045;28;20042;-72
2022/08/17 00:46:47;;;;;;;6.55;4.57;;;;;;;15.80;71.40;98123.88;4188214;28;20351;-71
2022/08/17 00:48:48;;;;;;;6.47;4.43;;;;;;;15.79;71.63;98125.06;4187161;28;20036;-71
2022/08/17 00:51:18;;;;;;;6.53;4.75;;;;;;;15.84;70.41;98122.63;4188335;28;20081;-71
2022/08/17 00:53:19;;;;;;;6.35;4.25;;;;;;;15.79;70.76;98127.88;4187153;28;20052;-71
2022/08/17 00:55:21;;;;;;;10.60;4.70;;;;;;;15.72;70.89;98129.56;4187854;28;20051;-71
2022/08/17 00:57:35;;;;;;;9.93;5.07;;;;;;;15.66;71.66;98119.31;4187525;28;20078;-71
2022/08/17 00:59:41;;;;;;;7.97;5.18;;;;;;;15.58;72.60;98115.00;4187570;28;20044;-71
2022/08/17 01:01:42;;;;;;;8.23;4.82;;;;;;;15.53;72.27;98121.03;4188002;28;20048;-71
2022/08/17 01:03:43;;;;;;;7.80;5.35;;;;;;;15.52;72.65;98123.03;4186742;28;20048;-71
2022/08/17 01:05:44;;;;;;;8.73;4.90;;;;;;;15.46;73.40;98127.50;4188494;28;20041;-71
2022/08/17 01:07:46;;;;;;;7.97;5.40;;;;;;;15.39;73.98;98128.41;4187439;28;20045;-71
2022/08/17 01:09:47;;;;;;;6.47;5.43;;;;;;;15.36;74.28;98128.44;4186993;28;20040;-71
2022/08/17 01:11:51;;;;;;;7.15;5.22;;;;;;;15.35;73.97;98126.88;4188247;28;20040;-71
2022/08/17 01:13:51;;;;;;;7.65;5.03;;;;;;;15.38;72.74;98126.03;4187534;28;20045;-71
2022/08/17 01:15:57;;;;;;;7.43;4.95;;;;;;;15.45;72.24;98131.50;4187551;28;20377;-71
2022/08/17 01:17:58;;;;;;;8.50;5.75;;;;;;;15.57;71.87;98124.59;4186590;28;20056;-71
2022/08/17 01:19:59;;;;;;;8.95;5.22;;;;;;;15.61;71.91;98128.13;4187278;28;20383;-71
2022/08/17 01:22:02;;;;;;;8.88;5.28;;;;;;;15.64;71.57;98124.53;4188276;28;20044;-71
2022/08/17 01:24:03;;;;;;;16.10;6.05;;;;;;;15.63;72.17;98126.50;4187370;28;20044;-71
2022/08/17 01:26:05;;;;;;;9.02;5.50;;;;;;;15.56;72.80;98123.00;4187470;28;20202;-71
2022/08/17 01:28:05;;;;;;;6.70;5.90;;;;;;;15.47;73.61;98131.88;4187283;28;20035;-71
2022/08/17 01:30:09;;;;;;;6.85;5.13;;;;;;;15.34;74.02;98126.09;4186529;28;20029;-71
2022/08/17 01:32:10;;;;;;;9.80;5.95;;;;;;;15.28;73.82;98126.97;4187308;28;20289;-71
2022/08/17 01:34:14;;;;;;;10.90;5.47;;;;;;;15.15;74.34;98124.75;4187527;28;20111;-71
2022/08/17 01:36:14;;;;;;;9.05;5.50;;;;;;;15.08;74.92;98124.03;4187499;28;20349;-72
2022/08/17 01:38:16;;;;;;;8.00;5.45;;;;;;;15.07;74.49;98133.59;4186857;28;20112;-71
2022/08/17 01:40:38;;;;;;;7.35;5.18;;;;;;;15.06;74.58;98127.25;4186220;28;20055;-71
2022/08/17 01:42:41;;;;;;;6.40;5.07;;;;;;;15.03;74.46;98128.06;4186520;28;20105;-71
2022/08/17 01:44:41;;;;;;;6.60;5.40;;;;;;;15.01;75.48;98130.47;4186677;28;20049;-71
2022/08/17 01:46:41;;;;;;;7.57;5.32;;;;;;;14.92;76.55;98138.53;4187134;28;20559;-71
2022/08/17 01:48:46;;;;;;;13.65;5.95;;;;;;;14.85;76.35;98144.19;4187397;28;20119;-71
2022/08/17 01:50:48;;;;;;;7.22;4.95;;;;;;;14.79;76.68;98156.97;4187255;28;20045;-71
2022/08/17 01:52:55;;;;;;;7.25;4.82;;;;;;;14.73;76.53;98151.09;4187238;28;20388;-71
2022/08/17 01:54:56;;;;;;;5.80;4.63;;;;;;;14.72;76.16;98152.25;4185175;28;20045;-71
2022/08/17 01:56:56;;;;;;;9.27;5.50;;;;;;;14.69;75.73;98138.38;4186567;28;20055;-71
2022/08/17 01:58:56;;;;;;;5.80;4.75;;;;;;;14.65;75.47;98130.09;4185581;28;20578;-71
2022/08/17 02:00:56;;;;;;;8.18;4.63;;;;;;;14.64;75.56;98122.91;4186647;28;20120;-71
2022/08/17 02:02:57;;;;;;;6.32;4.68;;;;;;;14.65;74.73;98134.88;4187790;28;20358;-71
2022/08/17 02:04:57;;;;;;;7.55;5.28;;;;;;;14.63;74.31;98128.91;4186908;28;20408;-70
2022/08/17 02:06:58;;;;;;;6.20;5.25;;;;;;;14.60;74.37;98122.19;4186209;28;20045;-70
2022/08/17 02:08:59;;;;;;;5.25;4.75;;;;;;;14.58;74.49;98128.16;4186188;28;20448;-71
2022/08/17 02:10:59;;;;;;;5.05;4.28;;;;;;;14.53;74.88;98125.81;4187519;28;20055;-71
2022/08/17 02:13:01;;;;;;;5.50;4.65;;;;;;;14.50;74.93;98125.88;4186341;28;20120;-71
2022/08/17 02:15:01;;;;;;;6.05;5.22;;;;;;;14.49;74.80;98125.06;4184662;28;20114;-71
2022/08/17 02:17:01;;;;;;;7.85;4.80;;;;;;;14.49;74.32;98127.84;4186678;28;20044;-71
2022/08/17 02:19:03;;;;;;;7.00;4.72;;;;;;;14.48;74.18;98125.47;4185894;28;20052;-71
2022/08/17 02:21:04;;;;;;;5.43;4.85;;;;;;;14.45;74.70;98134.63;4185922;28;20072;-71
2022/08/17 02:23:07;;;;;;;7.57;5.10;;;;;;;14.39;74.86;98128.69;4185860;28;20039;-71
2022/08/17 02:25:11;;;;;;;8.52;5.43;;;;;;;14.35;75.39;98133.53;4186373;28;20393;-71
2022/08/17 02:27:12;;;;;;;7.82;4.63;;;;;;;14.29;75.12;98124.03;4186538;28;20052;-71
2022/08/17 02:29:13;;;;;;;9.38;4.38;;;;;;;14.24;76.08;98127.28;4184393;28;20041;-71
2022/08/17 02:31:14;;;;;;;6.17;5.03;;;;;;;14.22;74.93;98122.09;4186620;28;20142;-71
2022/08/17 02:33:15;;;;;;;7.10;4.57;;;;;;;14.19;74.94;98128.50;4186388;28;20317;-71
2022/08/17 02:35:15;;;;;;;7.40;4.90;;;;;;;14.20;75.00;98123.72;4186880;28;20582;-71
2022/08/17 02:37:17;;;;;;;5.10;4.60;;;;;;;14.16;74.97;98117.41;4186371;28;20052;-71
2022/08/17 02:39:17;;;;;;;8.07;5.13;;;;;;;14.08;75.26;98113.09;4184617;28;20492;-71
2022/08/17 02:41:17;;;;;;;6.60;5.50;;;;;;;14.04;75.17;98102.00;4186637;28;20575;-71
2022/08/17 02:43:18;;;;;;;10.55;5.13;;;;;;;13.99;75.81;98111.56;4184957;28;20395;-71
2022/08/17 02:45:21;;;;;;;8.10;5.07;;;;;;;14.00;75.90;98117.94;4186328;28;20051;-71
2022/08/17 02:47:23;;;;;;;8.10;5.03;;;;;;;14.02;75.68;98110.75;4186178;28;20053;-71
2022/08/17 02:49:23;;;;;;;9.98;5.40;;;;;;;13.99;75.62;98119.91;4186054;28;20045;-71
2022/08/17 02:51:25;;;;;;;7.43;4.45;;;;;;;13.95;76.05;98110.81;4185281;28;20123;-71
2022/08/17 02:53:26;;;;;;;6.13;4.80;;;;;;;13.95;76.83;98121.13;4184742;28;20377;-71
2022/08/17 02:55:33;;;;;;;7.68;4.95;;;;;;;13.92;76.90;98119.19;4185763;28;20075;-71
2022/08/17 02:57:33;;;;;;;6.90;5.47;;;;;;;13.94;76.11;98123.13;4185845;28;20143;-71
2022/08/17 02:59:34;;;;;;;9.20;6.03;;;;;;;13.92;76.47;98121.97;4185730;28;20079;-71
2022/08/17 03:01:34;;;;;;;8.70;5.00;;;;;;;13.88;77.23;98123.97;4186218;28;20105;-71
2022/08/17 03:03:36;;;;;;;6.45;5.38;;;;;;;13.84;77.64;98115.66;4185695;28;20493;-71
2022/08/17 03:05:37;;;;;;;7.68;5.70;;;;;;;13.79;77.72;98113.31;4186001;28;20036;-71
2022/08/17 03:07:37;;;;;;;9.85;5.55;;;;;;;13.75;77.89;98127.25;4186260;28;20449;-71
2022/08/17 03:09:38;;;;;;;11.02;5.72;;;;;;;13.72;79.14;98127.25;4185583;28;20461;-71
2022/08/17 03:11:38;;;;;;;6.85;5.32;;;;;;;13.70;79.73;98121.31;4185358;28;20044;-71
2022/08/17 03:13:38;;;;;;;6.22;5.32;;;;;;;13.70;79.46;98129.66;4185100;28;20083;-71
2022/08/17 03:15:43;;;;;;;16.30;5.45;;;;;;;13.69;79.97;98128.88;4185209;28;20052;-71
2022/08/17 03:17:44;;;;;;;6.28;5.10;;;;;;;13.68;80.66;98121.72;4186516;28;20121;-71
2022/08/17 03:19:45;;;;;;;9.43;5.45;;;;;;;13.69;80.35;98128.88;4184284;28;20048;-71
2022/08/17 03:21:45;;;;;;;8.10;5.43;;;;;;;13.69;80.88;98131.66;4185645;28;20511;-71
2022/08/17 03:23:45;;;;;;;11.05;6.22;;;;;;;13.66;81.72;98118.56;4186018;28;20076;-71
2022/08/17 03:25:46;;;;;;;9.98;5.97;;;;;;;13.68;82.29;98129.28;4184285;28;20044;-71
2022/08/17 03:27:47;;;;;;;9.07;6.30;;;;;;;13.68;82.12;98126.50;4184292;28;20135;-71
2022/08/17 03:29:47;;;;;;;10.50;5.70;;;;;;;13.64;81.61;98117.38;4185418;28;20211;-71
2022/08/17 03:31:48;;;;;;;9.40;5.75;;;;;;;13.60;81.77;98119.41;4185464;28;20131;-71
2022/08/17 03:33:49;;;;;;;7.68;5.55;;;;;;;13.58;81.94;98125.38;4185421;28;20051;-71
2022/08/17 03:35:50;;;;;;;10.10;6.00;;;;;;;13.55;82.01;98115.06;4186067;28;20048;-71
2022/08/17 03:37:51;;;;;;;7.93;5.40;;;;;;;13.50;82.13;98118.28;4184784;28;20412;-71
2022/08/17 03:39:53;;;;;;;15.20;6.03;;;;;;;13.42;82.20;98114.75;4184616;28;20078;-71
2022/08/17 03:42:01;;;;;;;8.40;5.07;;;;;;;13.38;81.67;98111.19;4185832;28;20040;-71
2022/08/17 03:44:02;;;;;;;9.45;5.53;;;;;;;13.34;81.17;98112.41;4184990;28;20072;-71
2022/08/17 03:57:42;;;;;;;8.90;6.70;;;;;;;13.13;81.69;98113.25;4186396;28;20109;-71
2022/08/17 03:59:42;;;;;;;10.13;5.90;;;;;;;13.11;81.38;98110.88;4188574;28;20076;-70
2022/08/17 04:01:45;;;;;;;8.02;6.03;;;;;;;13.12;81.18;98114.47;4188816;28;20033;-71
2022/08/17 04:03:45;;;;;;;6.47;5.78;;;;;;;13.17;80.52;98117.63;4187280;28;20120;-71
2022/08/17 04:05:45;;;;;;;9.55;6.32;;;;;;;13.18;80.21;98121.19;4189715;28;20506;-71
2022/08/17 04:07:46;;;;;;;20.92;7.35;;;;;;;13.18;81.05;98121.97;4189149;28;20051;-71
2022/08/17 04:09:46;;;;;;;10.05;6.30;;;;;;;13.19;81.36;98125.53;4182337;28;20239;-71
2022/08/17 04:11:47;;;;;;;11.20;7.32;;;;;;;13.15;82.41;98125.53;4185102;28;20515;-71
2022/08/17 04:13:47;;;;;;;17.73;6.07;;;;;;;13.11;82.41;98126.78;4186778;28;20039;-71
2022/08/17 04:15:48;;;;;;;9.38;6.40;;;;;;;13.09;82.00;98120.84;4186320;28;20043;-71
2022/08/17 04:17:48;;;;;;;14.70;6.82;;;;;;;13.11;82.19;98127.56;4186097;28;20166;-71
2022/08/17 04:19:48;;;;;;;8.60;6.00;;;;;;;13.13;82.44;98124.38;4183609;28;20040;-71
2022/08/17 04:21:49;;;;;;;6.53;5.10;;;;;;;13.16;82.61;98131.91;4185449;27;20033;-71
2022/08/17 04:23:50;;;;;;;9.23;5.80;;;;;;;13.17;82.58;98130.72;4185566;28;20047;-71
2022/08/17 04:25:50;;;;;;;11.52;6.00;;;;;;;13.16;82.40;98137.47;4181345;28;20170;-71
2022/08/17 04:27:51;;;;;;;11.30;6.57;;;;;;;13.18;82.39;98132.28;4181877;28;20464;-71
2022/08/17 04:29:51;;;;;;;10.57;6.90;;;;;;;13.16;82.62;98140.25;4182680;28;20145;-71
2022/08/17 04:31:52;;;;;;;9.27;5.72;;;;;;;13.16;82.50;98137.47;4187381;28;20129;-71
2022/08/17 04:33:53;;;;;;;9.88;6.55;;;;;;;13.13;82.59;98135.47;4185551;28;20123;-71
2022/08/17 04:36:01;;;;;;;9.40;6.20;;;;;;;13.14;82.13;98142.63;4187990;28;20495;-71
2022/08/17 04:38:02;;;;;;;13.10;6.50;;;;;;;13.13;81.66;98141.03;4185901;28;20070;-71
2022/08/17 04:42:22;;;;;;;8.77;5.90;;;;;;;13.12;80.42;98145.00;4185251;28;20387;-71
2022/08/17 04:44:22;;;;;;;12.13;6.05;;;;;;;13.12;80.04;98143.03;4183927;28;20044;-71
2022/08/17 04:46:30;;;;;;;11.60;5.80;;;;;;;13.11;79.38;98143.44;4186870;28;20056;-71
2022/08/17 04:48:34;;;;;;;13.13;7.53;;;;;;;13.17;78.93;98147.38;4184748;28;20048;-71
2022/08/17 04:50:43;;;;;;;11.15;5.80;;;;;;;13.22;78.45;98155.31;4186669;28;20043;-71
2022/08/17 04:52:44;;;;;;;12.27;6.50;;;;;;;13.25;79.15;98162.06;4185616;28;20037;-71
2022/08/17 04:54:45;;;;;;;8.15;5.55;;;;;;;13.27;79.19;98160.47;4185704;28;20463;-71
2022/08/17 04:56:45;;;;;;;10.65;6.72;;;;;;;13.29;78.90;98166.41;4178575;28;20048;-71
2022/08/17 04:58:49;;;;;;;11.02;6.10;;;;;;;13.32;78.62;98157.28;4183975;28;20064;-71
2022/08/17 05:00:49;;;;;;;11.73;6.68;;;;;;;13.36;78.65;98162.81;4186640;28;20411;-71
2022/08/17 05:02:52;;;;;;;9.50;5.95;;;;;;;13.39;78.74;98171.09;4183877;28;20040;-71
2022/08/17 05:04:52;;;;;;;;;;;;;;;13.41;78.78;98174.28;4186880;28;20294;-71
2022/08/17 05:06:56;;;;;;;11.38;5.93;;;;;;;13.42;78.64;98175.88;4184286;28;19912;-71
2022/08/17 05:08:58;;;;;;;10.50;6.50;;;;;;;13.43;78.22;98176.66;4182134;28;20036;-71
2022/08/17 05:10:59;;;;;;;7.90;5.85;;;;;;;13.47;78.01;98175.44;4178289;28;20045;-71
2022/08/17 05:13:03;;;;;;;13.13;5.82;;;;;;;13.54;77.32;98177.41;4179598;28;20314;-71
2022/08/17 05:15:03;;;;;;;9.75;6.13;;;;;;;13.64;76.74;98184.09;4184077;28;20090;-71
2022/08/17 05:17:04;;;;;;;10.82;6.07;;;;;;;13.69;77.42;98178.91;4183561;28;20040;-71
2022/08/17 05:19:04;;;;;;;10.52;6.72;;;;;;;13.74;77.61;98177.69;4185757;28;20044;-71
2022/08/17 05:21:05;;;;;;;11.02;6.82;;;;;;;13.82;77.81;98172.84;4185903;28;20199;-71
2022/08/17 05:23:09;;;;;;;12.48;6.35;;;;;;;13.87;77.90;98170.44;4184228;28;20041;-71
2022/08/17 05:25:09;;;;;;;15.30;7.13;;;;;;;13.99;77.32;98169.97;4186272;28;20338;-71
2022/08/17 05:27:10;;;;;;;13.23;7.80;;;;;;;14.10;76.65;98166.31;4187047;28;20048;-71
2022/08/17 05:29:10;;;;;;;7.88;5.93;;;;;;;14.21;75.68;98169.81;4184671;28;20287;-71
2022/08/17 05:31:11;;;;;;;11.57;6.50;;;;;;;14.32;75.20;98167.75;4186211;28;20115;-71
2022/08/17 05:33:15;;;;;;;10.88;6.40;;;;;;;14.42;74.28;98166.84;4188030;28;20049;-71
2022/08/17 05:35:15;;;;;;;10.80;5.82;;;;;;;14.56;74.11;98177.91;4186005;28;20416;-71
2022/08/17 05:37:16;;;;;;;12.13;6.18;;;;;;;14.71;74.61;98181.31;4185915;28;20174;-71
2022/08/17 05:39:16;;;;;;;10.48;6.25;;;;;;;14.81;75.65;98179.63;4186068;28;20048;-71
2022/08/17 05:41:16;;;;;;;16.02;7.45;;;;;;;14.89;75.90;98181.94;4187452;28;20060;-71
2022/08/17 05:43:23;;;;;;;10.10;6.47;;;;;;;15.02;75.49;98184.19;4186420;28;20045;-71
2022/08/17 05:45:23;;;;;;;13.50;6.40;;;;;;;15.07;75.54;98178.19;4186364;28;20053;-71
2022/08/17 05:47:25;;;;;;;13.27;6.60;;;;;;;15.14;75.60;98180.84;4186097;28;20549;-71
2022/08/17 05:49:27;;;;;;;11.40;6.90;;;;;;;15.22;75.58;98176.00;4187076;28;20086;-71
2022/08/17 05:52:05;;;;;;;14.87;6.73;;;;;;;15.31;75.47;98170.75;4187307;28;20072;-71
2022/08/17 05:54:20;;;;;;;19.88;7.00;;;;;;;15.42;74.68;98166.59;4185612;28;20401;-71
2022/08/17 05:56:20;;;;;;;11.52;6.75;;;;;;;15.57;74.13;98170.00;4186298;28;20602;-71
2022/08/17 05:58:21;;;;;;;15.50;6.40;;;;;;;15.68;73.27;98167.09;4185887;28;20112;-71
2022/08/17 06:00:30;;;;;;;13.30;6.60;;;;;;;15.82;71.62;98174.47;4186741;28;20047;-71
2022/08/17 06:02:33;;;;;;;16.90;8.05;;;;;;;15.93;72.19;98170.28;4186298;28;20072;-71
2022/08/17 06:04:52;;;;;;;14.55;7.65;;;;;;;16.07;73.85;98174.09;4186921;28;20155;-71
2022/08/17 06:07:05;;;;;;;18.48;7.93;;;;;;;16.18;74.51;98174.72;4186721;28;20060;-71
2022/08/17 06:09:16;;;;;;;10.30;6.75;;;;;;;16.25;74.16;98169.81;4186121;28;20127;-71
2022/08/17 06:11:26;;;;;;;16.88;7.25;;;;;;;16.38;73.50;98169.19;4186510;28;20055;-71
2022/08/17 06:13:53;;;;;;;15.73;6.63;;;;;;;16.48;71.55;98173.84;4185989;28;20101;-71
2022/08/17 06:16:17;;;;;;;9.75;6.63;;;;;;;16.58;70.99;98170.06;4185875;28;20045;-71
2022/08/17 06:18:20;;;;;;;8.98;6.90;;;;;;;16.73;71.65;98171.41;4184926;28;20082;-71
2022/08/17 06:20:20;;;;;;;;;;;;;;;16.86;71.52;98179.94;4187408;28;20261;-71
2022/08/17 06:22:25;;;;;;;19.75;8.98;;;;;;;16.95;71.60;98159.84;4186001;28;20408;-71
2022/08/17 06:24:37;;;;;;;15.70;6.82;;;;;;;17.04;71.13;98169.22;4185918;28;20044;-71
2022/08/17 06:26:40;;;;;;;20.77;8.65;;;;;;;17.12;72.63;98167.09;4186300;28;20041;-71
2022/08/17 06:28:47;;;;;;;13.63;7.40;;;;;;;17.19;72.90;98155.75;4185097;28;20456;-71
2022/08/17 06:30:56;;;;;;;12.90;7.50;;;;;;;17.31;72.06;98177.50;4186367;28;20098;-71
2022/08/17 06:33:05;;;;;;;17.67;8.80;;;;;;;17.36;71.62;98162.22;4185132;28;20488;-71
2022/08/17 06:35:08;;;;;;;15.27;7.65;;;;;;;17.46;71.45;98166.81;4185844;28;20041;-71
2022/08/17 06:38:03;;;;;;;12.02;7.38;;;;;;;17.56;70.88;98162.22;4185634;28;20049;-71
2022/08/17 06:40:32;;;;;;;12.07;8.30;;;;;;;17.63;71.52;98170.44;4134297;28;20045;-71
2022/08/17 06:42:39;;;;;;;13.45;7.63;;;;;;;17.79;70.94;98175.31;4174935;28;20337;-71
2022/08/17 06:44:48;;;;;;;12.70;6.95;;;;;;;17.89;70.42;98186.28;4186701;28;20466;-71
2022/08/17 06:46:55;;;;;;;11.13;6.95;;;;;;;17.99;69.86;98170.47;4186886;28;20159;-71
2022/08/17 06:49:19;;;;;;;14.15;7.32;;;;;;;18.06;69.65;98167.50;4184590;28;20127;-71
2022/08/17 06:51:30;;;;;;;12.98;7.25;;;;;;;18.14;68.67;98177.31;4185392;28;20238;-71
2022/08/17 06:54:04;;;;;;;15.32;7.28;;;;;;;18.20;68.21;98171.97;4186457;28;20323;-71
2022/08/17 06:56:10;;;;;;;9.57;6.80;;;;;;;18.31;68.57;98169.69;4152120;28;20060;-71
2022/08/17 06:58:13;;;;;;;17.08;8.75;;;;;;;18.39;68.04;98165.50;4185270;28;20388;-71
2022/08/17 07:00:28;;;;;;;7.32;6.63;;;;;;;18.50;67.64;98160.41;4185795;28;20036;-71
2022/08/17 07:02:45;;;;;;;10.60;6.65;;;;;;;18.62;67.18;98158.94;4185109;28;20048;-71
2022/08/17 07:04:46;;;;;;;9.68;5.93;;;;;;;18.72;66.55;98155.09;4186212;28;20063;-71
2022/08/17 07:06:52;;;;;;;6.80;5.57;;;;;;;18.79;66.30;98159.72;4185840;28;20469;-71
2022/08/17 07:08:59;;;;;;;7.65;5.47;;;;;;;18.90;66.16;98163.00;4175729;28;20040;-71
2022/08/17 07:11:07;;;;;;;6.72;5.72;;;;;;;19.04;66.15;98159.81;4185908;28;20036;-71
2022/08/17 07:13:29;;;;;;;9.07;6.07;;;;;;;19.18;65.48;98161.44;4185690;28;20044;-71
2022/08/17 07:15:41;;;;;;;7.68;5.75;;;;;;;19.31;64.79;98161.47;4185738;28;20080;-71
2022/08/17 07:17:43;;;;;;;9.25;6.38;;;;;;;19.43;64.30;98160.72;4185582;28;20033;-71
2022/08/17 07:19:46;;;;;;;8.75;6.28;;;;;;;19.57;64.10;98149.13;4184928;28;20047;-71
2022/08/17 07:22:14;;;;;;;10.68;5.80;;;;;;;19.68;63.70;98165.63;4185060;28;20086;-71
2022/08/17 07:24:28;;;;;;;7.38;5.53;;;;;;;19.77;63.39;98153.72;4184076;28;20056;-71
2022/08/17 07:26:29;;;;;;;6.88;5.63;;;;;;;19.85;62.78;98157.91;4185139;28;20045;-71
2022/08/17 07:28:32;;;;;;;8.35;5.43;;;;;;;19.93;61.74;98153.63;4184910;28;20065;-72
2022/08/17 07:30:40;;;;;;;9.80;6.13;;;;;;;20.03;62.25;98158.16;4185804;28;20477;-72
2022/08/17 07:32:45;;;;;;;7.85;5.80;;;;;;;20.15;61.79;98164.97;4186247;28;20123;-71
2022/08/17 07:35:07;;;;;;;9.40;5.88;;;;;;;20.25;60.73;98169.47;4184659;28;20049;-71
2022/08/17 07:37:08;;;;;;;7.93;5.63;;;;;;;20.37;61.49;98171.50;4187161;28;20048;-71
2022/08/17 07:39:09;;;;;;;25.45;6.43;;;;;;;20.48;61.02;98159.91;4184583;28;20036;-71
2022/08/17 07:41:10;;;;;;;13.50;5.53;;;;;;;20.57;60.26;98157.19;4184555;28;20041;-71
2022/08/17 07:43:10;;;;;;;18.00;5.90;;;;;;;20.68;59.30;98168.06;4185674;28;20122;-71
2022/08/17 07:48:18;;;;;;;13.65;5.72;;;;;;;20.86;59.38;98156.25;4185099;28;20345;-71
2022/08/17 07:49:53;;;;;;;15.57;5.70;;;;;;;21.16;58.25;98158.34;4184600;28;20318;-71
2022/08/17 07:51:58;;;;;;;10.32;4.93;;;;;;;21.21;58.59;98163.41;4185324;28;20151;-71
2022/08/17 07:54:21;;;;;;;14.30;5.15;;;;;;;21.25;58.39;98160.44;4185996;28;20041;-71
2022/08/17 07:56:49;;;;;;;12.10;5.72;;;;;;;21.46;57.91;98173.00;4185844;28;20032;-72
2022/08/17 07:59:08;;;;;;;8.18;6.22;;;;;;;21.63;57.12;98165.91;4184848;28;20063;-72
2022/08/17 08:01:17;;;;;;;13.38;4.95;;;;;;;21.74;56.73;98163.44;4185551;28;20059;-71
2022/08/17 08:03:30;;;;;;;9.80;5.30;;;;;;;22.03;55.86;98163.13;4185324;28;20044;-72
2022/08/17 08:05:31;;;;;;;9.13;5.03;;;;;;;22.10;55.34;98162.88;4185421;28;20063;-71
2022/08/17 08:07:37;;;;;;;5.88;4.90;;;;;;;22.14;54.86;98162.72;4185179;28;20455;-71
2022/08/17 08:09:44;;;;;;;9.05;5.10;;;;;;;22.24;54.82;98172.00;4185235;28;20660;-71
2022/08/17 08:11:44;;;;;;;8.27;4.60;;;;;;;22.35;54.15;98172.38;4185307;28;20076;-71
2022/08/17 08:13:45;;;;;;;9.70;5.32;;;;;;;22.43;53.79;98182.09;4185589;28;20052;-71
2022/08/17 08:15:52;;;;;;;14.60;5.20;;;;;;;22.48;54.33;98172.25;4185312;28;20048;-71
2022/08/17 08:17:59;;;;;;;14.55;4.90;;;;;;;22.63;53.61;98179.63;4184207;28;20044;-71
2022/08/17 08:20:07;;;;;;;11.05;4.70;;;;;;;22.76;52.52;98171.06;4185518;28;20186;-71
2022/08/17 08:22:17;;;;;;;9.02;4.40;;;;;;;22.90;52.12;98172.50;4184941;28;20429;-72
2022/08/17 08:24:35;;;;;;;7.15;4.35;;;;;;;23.03;52.03;98164.69;4184571;28;20035;-72
2022/08/17 08:27:00;;;;;;;14.52;5.00;;;;;;;23.30;50.38;98171.56;4184893;28;20520;-72
2022/08/17 08:29:07;;;;;;;9.73;4.32;;;;;;;23.47;49.89;98159.47;4185527;28;20089;-72
2022/08/17 08:31:43;;;;;;;9.13;4.28;;;;;;;23.61;49.34;98163.72;4184579;28;20267;-71
2022/08/17 08:34:32;;;;;;;8.50;4.03;;;;;;;23.68;49.89;98154.91;4133165;28;20050;-71
2022/08/17 08:36:41;;;;;;;7.43;4.47;;;;;;;23.95;48.62;98154.03;4169438;28;20704;-71
2022/08/17 08:39:09;;;;;;;11.65;4.63;;;;;;;24.03;48.57;98160.13;4187125;28;20127;-71
2022/08/17 08:41:33;;;;;;;6.55;4.10;;;;;;;24.15;49.04;98161.97;4188013;28;20041;-72
2022/08/17 08:43:48;;;;;;;6.60;4.05;;;;;;;24.33;47.91;98158.31;4166842;28;20465;-72
2022/08/17 08:46:03;;;;;;;9.73;4.88;;;;;;;24.50;47.19;98153.06;4188295;28;20044;-72
2022/08/17 08:48:32;;;;;;;4.28;3.75;;;;;;;24.57;46.63;98147.78;4186965;28;20104;-72
2022/08/17 08:51:12;;;;;;;5.43;4.25;;;;;;;24.76;46.32;98148.47;4188719;28;20450;-72
2022/08/17 08:53:27;;;;;;;4.72;4.25;;;;;;;24.95;45.71;98140.63;4185858;28;20040;-72
2022/08/17 08:55:39;;;;;;;5.28;4.20;;;;;;;25.12;44.58;98141.78;4188167;28;20045;-72
2022/08/17 08:57:49;;;;;;;6.57;3.70;;;;;;;25.17;44.07;98141.09;4187512;28;20056;-72
2022/08/17 08:59:58;;;;;;;6.32;3.85;;;;;;;25.32;43.56;98148.81;4187259;28;20094;-70
2022/08/17 09:02:29;;;;;;;4.70;4.25;;;;;;;25.40;42.75;98147.16;4186945;28;20091;-70
2022/08/17 09:04:48;;;;;;;3.53;2.97;;;;;;;25.42;42.40;98155.97;4187648;28;20476;-70
2022/08/17 09:07:11;;;;;;;4.85;3.53;;;;;;;25.49;42.79;98161.28;4187064;28;20043;-70
2022/08/17 09:09:31;;;;;;;4.63;3.42;;;;;;;25.63;42.94;98154.81;4187653;28;20033;-70
2022/08/17 09:11:42;;;;;;;4.00;3.60;;;;;;;25.67;41.68;98152.59;4187781;28;20068;-70
2022/08/17 09:13:57;;;;;;;4.35;3.67;;;;;;;25.80;42.28;98151.53;4186837;28;20409;-70
2022/08/17 09:16:21;;;;;;;4.05;3.40;;;;;;;25.96;41.16;98148.19;4187264;28;20048;-70
2022/08/17 09:18:32;;;;;;;3.65;3.35;;;;;;;26.10;40.91;98141.72;4185942;28;20053;-70
2022/08/17 09:20:45;;;;;;;4.88;3.60;;;;;;;26.18;39.98;98136.44;4187615;28;20828;-70
2022/08/17 09:22:51;;;;;;;;;;;;;;;26.20;39.83;98136.72;4188225;28;20036;-70
2022/08/17 09:25:02;;;;;;;6.45;3.58;;;;;;;26.12;39.41;98129.88;4185846;28;19960;-70
2022/08/17 09:27:13;;;;;;;6.75;3.13;;;;;;;26.11;39.62;98131.94;4186495;28;20072;-70
2022/08/17 09:29:15;;;;;;;7.10;3.50;;;;;;;26.15;39.26;98126.06;4187139;28;20551;-70
2022/08/17 09:31:37;;;;;;;;;;;;;;;26.24;38.60;98129.56;4188171;28;20033;-70
2022/08/17 09:33:43;;;;;;;5.90;3.25;;;;;;;26.22;39.38;98132.09;4186816;28;19921;-70
2022/08/17 09:35:48;;;;;;;6.03;3.40;;;;;;;26.33;39.19;98137.19;4186077;28;20051;-70
2022/08/17 09:38:01;;;;;;;5.78;3.45;;;;;;;26.43;38.49;98129.34;4188420;28;20479;-70
2022/08/17 09:40:27;;;;;;;7.10;3.40;;;;;;;26.51;37.46;98131.28;4186587;28;20064;-70
2022/08/17 09:42:41;;;;;;;4.88;2.90;;;;;;;26.60;38.03;98130.34;4187520;28;20040;-70
2022/08/17 09:44:47;;;;;;;6.63;3.10;;;;;;;26.63;37.78;98131.41;4186501;28;20044;-70
2022/08/17 09:47:17;;;;;;;5.53;3.42;;;;;;;26.65;37.88;98129.66;4187345;28;20113;-70
2022/08/17 09:49:32;;;;;;;7.38;3.20;;;;;;;26.51;36.72;98127.66;4184318;28;20325;-70
2022/08/17 09:51:43;;;;;;;6.18;3.60;;;;;;;26.53;37.12;98123.03;4187038;28;20423;-70
2022/08/17 09:53:43;;;;;;;4.65;2.92;;;;;;;26.58;37.27;98127.25;4187664;28;20131;-70
2022/08/17 09:55:58;;;;;;;3.63;3.25;;;;;;;26.60;37.74;98122.63;4186154;28;20265;-70
2022/08/17 09:58:12;;;;;;;3.80;3.30;;;;;;;26.65;37.66;98120.38;4187445;28;20044;-70
2022/08/17 10:00:23;;;;;;;6.40;3.10;;;;;;;26.77;36.94;98113.56;4185318;28;20092;-71
2022/08/17 10:02:50;;;;;;;5.55;3.25;;;;;;;26.93;36.03;98118.66;4187111;28;20121;-70
2022/08/17 10:05:01;;;;;;;8.00;3.67;;;;;;;26.94;36.61;98117.38;4186461;28;20211;-70
2022/08/17 10:07:14;;;;;;;4.85;3.00;;;;;;;27.02;37.56;98109.22;4186863;28;20033;-70
2022/08/17 10:09:42;;;;;;;6.88;3.55;;;;;;;26.90;38.13;98111.16;4185550;28;20044;-70
2022/08/17 10:14:13;;;;;;;4.40;3.00;;;;;;;26.88;37.52;98099.50;4186335;28;20043;-70